Ashley, Wisconsin
Current Conditions -  °F | °C
As of 4:35 AM on Tuesday 27 Jan 2015 (Local Time) from KCWA Reporting Station
Overcast Overcast  
Wind Chill: 23°   Ceiling: 600
Heat Index: 23°   Visibility: 7mi
Dew Point: 23°   Wind: 3mph
Humidity: 100%   Direction: 360°N
Pressure: 30.04"   Gusts: NA
Location:  44.7605°N, 89.5918°W
Report Text: KCWA 271035Z AUTO 36003KT 7SM OVC006 M05/M05 A3004 RMK AO2
Loading
Personal Weather Stations






























Interactive Weather Map New forecast layout! Learn more

10-Day Weather Forecast

Advertisements
Track Severe Weather on mobile